createdAt,value
2022-12-11T00:00:01.848Z,30.92
2022-12-11T00:05:04.153Z,31.65
2022-12-11T00:10:12.379Z,31.77
2022-12-11T00:15:14.486Z,30.90
2022-12-11T00:20:16.723Z,30.38
2022-12-11T00:25:18.664Z,30.95
2022-12-11T00:30:20.390Z,31.27
2022-12-11T00:35:22.374Z,32.40
2022-12-11T00:40:27.071Z,32.22
2022-12-11T00:45:31.754Z,33.08
2022-12-11T00:50:34.232Z,33.10
2022-12-11T00:55:41.766Z,30.52
2022-12-11T01:00:44.240Z,31.70
2022-12-11T01:05:55.487Z,32.00
2022-12-11T01:11:09.396Z,32.42
2022-12-11T01:16:14.273Z,31.73
2022-12-11T01:21:15.940Z,30.10
2022-12-11T01:26:17.934Z,31.88
2022-12-11T01:31:20.612Z,31.60
2022-12-11T01:36:23.303Z,33.55
2022-12-11T01:41:30.655Z,34.00
2022-12-11T01:46:34.465Z,34.08
2022-12-11T01:51:50.381Z,35.33
2022-12-11T01:56:56.052Z,35.55
2022-12-11T02:02:07.304Z,34.10
2022-12-11T02:07:10.557Z,35.28
2022-12-11T02:12:41.377Z,36.10
2022-12-11T02:18:30.420Z,35.55
2022-12-11T02:24:04.275Z,36.75
2022-12-11T02:29:12.126Z,35.42
2022-12-11T02:34:17.618Z,36.83
2022-12-11T02:39:20.270Z,37.17
2022-12-11T02:44:25.755Z,37.38
2022-12-11T02:49:29.023Z,38.38
2022-12-11T02:54:35.476Z,37.97
2022-12-11T02:59:42.959Z,38.35
2022-12-11T03:04:45.387Z,38.83
2022-12-11T03:09:48.495Z,36.00
2022-12-11T03:14:50.998Z,37.08
2022-12-11T03:20:12.387Z,37.47
2022-12-11T03:25:23.075Z,38.22
2022-12-11T03:30:26.977Z,38.88
2022-12-11T03:35:42.390Z,37.38
2022-12-11T03:40:48.795Z,38.92
2022-12-11T03:45:52.119Z,38.78
2022-12-11T03:50:54.516Z,37.80
2022-12-11T03:55:58.730Z,38.55
2022-12-11T04:01:00.400Z,38.10
2022-12-11T04:06:02.075Z,40.65
2022-12-11T04:11:22.662Z,37.45
2022-12-11T04:16:24.315Z,38.75
2022-12-11T04:21:44.610Z,37.58
2022-12-11T04:26:47.561Z,37.22
2022-12-11T04:31:50.619Z,40.30
2022-12-11T04:36:52.349Z,29.13
2022-12-11T04:41:54.020Z,39.03
2022-12-11T04:46:55.711Z,38.25
2022-12-11T04:51:57.330Z,37.92
2022-12-11T04:56:59.059Z,39.75
2022-12-11T05:02:00.950Z,38.17
2022-12-11T05:07:02.672Z,40.78
2022-12-11T05:12:04.439Z,40.50
2022-12-11T05:17:06.091Z,37.80
2022-12-11T05:22:07.761Z,40.15
2022-12-11T05:27:10.400Z,39.20
2022-12-11T05:32:12.057Z,40.58
2022-12-11T05:37:13.751Z,41.05
2022-12-11T05:42:15.423Z,41.00
2022-12-11T05:47:17.141Z,39.00
2022-12-11T05:52:18.808Z,39.28
2022-12-11T05:57:20.404Z,39.13
2022-12-11T06:02:22.181Z,38.55
2022-12-11T06:07:24.441Z,37.85
2022-12-11T06:12:26.184Z,38.47
2022-12-11T06:17:27.892Z,38.47
2022-12-11T06:22:30.371Z,39.60
2022-12-11T06:27:32.039Z,38.88
2022-12-11T06:32:33.641Z,39.65
2022-12-11T06:37:36.604Z,41.42
2022-12-11T06:42:38.816Z,39.83
2022-12-11T06:47:40.522Z,38.60
2022-12-11T06:52:42.226Z,41.17
2022-12-11T06:57:43.866Z,40.13
2022-12-11T07:02:46.587Z,39.60
2022-12-11T07:07:48.367Z,28.58
2022-12-11T07:12:53.063Z,36.88
2022-12-11T07:17:54.754Z,38.33
2022-12-11T07:22:56.405Z,39.35
2022-12-11T07:27:58.028Z,40.55
2022-12-11T07:32:59.812Z,36.65
2022-12-11T07:38:01.553Z,39.00
2022-12-11T07:43:03.294Z,38.13
2022-12-11T07:48:05.199Z,35.72
2022-12-11T07:53:07.675Z,38.50
2022-12-11T07:58:09.340Z,39.33
2022-12-11T08:03:11.146Z,36.58
2022-12-11T08:08:12.837Z,36.90
2022-12-11T08:13:15.334Z,36.90
2022-12-11T08:18:16.972Z,35.97
2022-12-11T08:23:21.516Z,38.35
2022-12-11T08:28:23.221Z,35.00
2022-12-11T08:33:25.600Z,35.15
2022-12-11T08:38:27.351Z,32.47
2022-12-11T08:43:29.442Z,34.33
2022-12-11T08:48:31.186Z,34.80
2022-12-11T08:53:33.289Z,33.72
2022-12-11T08:58:35.817Z,32.13
2022-12-11T09:03:38.315Z,30.48
2022-12-11T09:08:41.046Z,31.30
2022-12-11T09:13:42.989Z,31.02
2022-12-11T09:18:49.153Z,30.40
2022-12-11T09:23:58.225Z,28.67
2022-12-11T09:29:03.421Z,29.45
2022-12-11T09:34:07.630Z,29.80
2022-12-11T09:39:11.148Z,27.83
2022-12-11T09:44:19.734Z,30.10
2022-12-11T09:49:27.900Z,29.88
2022-12-11T09:54:29.715Z,33.08
2022-12-11T09:59:58.421Z,28.02
2022-12-11T10:05:22.441Z,28.58
2022-12-11T10:10:39.470Z,26.55
2022-12-11T10:16:02.333Z,28.98
2022-12-11T10:21:04.678Z,26.13
2022-12-11T10:26:08.038Z,26.27
2022-12-11T10:31:25.855Z,25.42
2022-12-11T10:36:45.404Z,26.33
2022-12-11T10:41:52.160Z,26.95
2022-12-11T10:47:15.497Z,27.05
2022-12-11T10:52:24.385Z,25.27
2022-12-11T10:57:29.524Z,24.70
2022-12-11T11:02:34.306Z,22.98
2022-12-11T11:07:36.080Z,23.17
2022-12-11T11:12:40.128Z,23.58
2022-12-11T11:17:55.877Z,22.33
2022-12-11T11:23:03.565Z,23.58
2022-12-11T11:28:08.324Z,22.35
2022-12-11T11:33:17.615Z,23.88
2022-12-11T11:38:23.006Z,23.50
2022-12-11T11:43:37.652Z,22.70
2022-12-11T11:48:48.219Z,21.70
2022-12-11T11:53:52.761Z,23.25
2022-12-11T11:59:25.374Z,23.42
2022-12-11T12:04:33.464Z,24.48
2022-12-11T12:10:02.474Z,25.08
2022-12-11T12:15:28.417Z,24.25
2022-12-11T12:20:30.010Z,24.02
2022-12-11T12:26:10.499Z,22.23
2022-12-11T12:31:37.327Z,21.00
2022-12-11T12:36:59.356Z,19.83
2022-12-11T12:42:28.934Z,20.10
2022-12-11T12:47:34.989Z,21.05
2022-12-11T12:52:39.421Z,20.00
2022-12-11T12:57:57.542Z,22.52
2022-12-11T13:03:03.387Z,21.13
2022-12-11T13:08:05.660Z,18.50
2022-12-11T13:13:39.080Z,21.35
2022-12-11T13:18:41.614Z,20.67
2022-12-11T13:23:43.261Z,19.20
2022-12-11T13:28:44.889Z,19.20
2022-12-11T13:33:49.808Z,17.90
2022-12-11T13:39:17.168Z,19.85
2022-12-11T13:44:24.315Z,22.50
2022-12-11T13:49:37.659Z,19.13
2022-12-11T13:54:48.226Z,19.30
2022-12-11T13:59:55.082Z,18.35
2022-12-11T14:05:04.138Z,22.23
2022-12-11T14:10:14.056Z,23.55
2022-12-11T14:15:16.099Z,21.92
2022-12-11T14:20:21.743Z,22.65
2022-12-11T14:25:26.140Z,22.75
2022-12-11T14:30:30.407Z,21.73
2022-12-11T14:35:40.759Z,19.08
2022-12-11T14:40:46.972Z,20.27
2022-12-11T14:45:50.379Z,20.65
2022-12-11T14:50:55.327Z,21.38
2022-12-11T14:56:01.539Z,21.30
2022-12-11T15:01:04.326Z,21.75
2022-12-11T15:06:44.183Z,22.27
2022-12-11T15:11:47.757Z,21.23
2022-12-11T15:16:52.019Z,21.17
2022-12-11T15:21:53.934Z,19.23
2022-12-11T15:26:58.511Z,20.58
2022-12-11T15:32:09.231Z,22.33
2022-12-11T15:37:36.521Z,20.88
2022-12-11T15:42:41.568Z,21.30
2022-12-11T15:47:44.179Z,21.08
2022-12-11T15:52:46.541Z,20.75
2022-12-11T15:57:54.077Z,19.73
2022-12-11T16:02:57.104Z,19.13
2022-12-11T16:07:59.564Z,20.03
2022-12-11T16:13:02.631Z,19.05
2022-12-11T16:18:07.465Z,18.55
2022-12-11T16:23:10.397Z,19.42
2022-12-11T16:28:14.245Z,18.47
2022-12-11T16:33:18.353Z,18.35
2022-12-11T16:38:19.997Z,19.35
2022-12-11T16:43:21.636Z,18.52
2022-12-11T16:48:24.406Z,17.85
2022-12-11T16:53:26.291Z,18.40
2022-12-11T16:58:28.091Z,18.45
2022-12-11T17:03:33.727Z,17.50
2022-12-11T17:08:35.747Z,19.60
2022-12-11T17:13:38.551Z,18.27
2022-12-11T17:18:40.887Z,17.30
2022-12-11T17:23:43.059Z,17.50
2022-12-11T17:28:45.244Z,16.95
2022-12-11T17:33:47.534Z,17.13
2022-12-11T17:38:50.137Z,16.13
2022-12-11T17:43:53.879Z,18.13
2022-12-11T17:53:58.331Z,17.65
2022-12-11T17:59:00.210Z,16.58
2022-12-11T18:04:02.352Z,18.13
2022-12-11T18:09:04.379Z,15.40
2022-12-11T18:14:06.072Z,16.33
2022-12-11T18:19:08.393Z,14.75
2022-12-11T18:24:10.630Z,15.23
2022-12-11T18:29:12.357Z,14.65
2022-12-11T18:34:14.107Z,13.52
2022-12-11T18:39:15.806Z,14.85
2022-12-11T18:44:22.459Z,13.13
2022-12-11T18:49:24.150Z,13.00
2022-12-11T18:54:25.918Z,14.30
2022-12-11T18:59:27.684Z,14.32
2022-12-11T19:04:29.611Z,14.02
2022-12-11T19:09:37.798Z,14.68
2022-12-11T19:14:40.191Z,14.07
2022-12-11T19:19:43.168Z,15.27
2022-12-11T19:24:44.970Z,15.97
2022-12-11T19:29:46.669Z,15.82
2022-12-11T19:34:52.314Z,15.52
2022-12-11T19:39:53.918Z,15.23
2022-12-11T19:44:55.553Z,15.63
2022-12-11T19:49:57.205Z,15.80
2022-12-11T19:55:04.535Z,16.08
2022-12-11T20:00:08.100Z,16.70
2022-12-11T20:05:10.283Z,15.77
2022-12-11T20:10:12.557Z,17.65
2022-12-11T20:15:14.524Z,17.25
2022-12-11T20:20:16.412Z,17.98
2022-12-11T20:25:18.217Z,17.90
2022-12-11T20:30:19.971Z,19.40
2022-12-11T20:35:22.690Z,20.63
2022-12-11T20:40:25.256Z,20.73
2022-12-11T20:45:27.136Z,17.92
2022-12-11T20:50:28.987Z,17.88
2022-12-11T20:55:30.679Z,18.35
2022-12-11T21:00:32.754Z,17.95
2022-12-11T21:05:34.431Z,17.40
2022-12-11T21:10:41.575Z,16.17
2022-12-11T21:15:44.011Z,17.85
2022-12-11T21:20:45.761Z,18.00
2022-12-11T21:25:47.588Z,18.73
2022-12-11T21:30:49.262Z,17.55
2022-12-11T21:35:58.372Z,17.73
2022-12-11T21:41:08.134Z,19.40
2022-12-11T21:46:15.036Z,18.52
2022-12-11T21:51:29.669Z,17.70
2022-12-11T21:56:34.319Z,18.08
2022-12-11T22:01:42.000Z,17.63
2022-12-11T22:06:46.761Z,18.27
2022-12-11T22:11:49.893Z,17.48
2022-12-11T22:16:54.483Z,17.88
2022-12-11T22:21:56.139Z,18.40
2022-12-11T22:26:57.890Z,19.42
2022-12-11T22:31:59.640Z,18.05
2022-12-11T22:37:01.303Z,20.42
2022-12-11T22:42:03.292Z,19.08
2022-12-11T22:47:04.934Z,18.67
2022-12-11T22:52:06.623Z,19.48
2022-12-11T22:57:08.573Z,18.40
2022-12-11T23:02:10.244Z,17.70
2022-12-11T23:07:11.968Z,18.48
2022-12-11T23:12:13.605Z,17.83
2022-12-11T23:17:15.394Z,17.17
2022-12-11T23:22:17.906Z,17.52
2022-12-11T23:27:19.612Z,17.45
2022-12-11T23:32:21.506Z,18.10
2022-12-11T23:37:23.347Z,19.08
2022-12-11T23:42:25.039Z,18.10
2022-12-11T23:47:26.788Z,16.58
2022-12-11T23:52:30.456Z,18.30
2022-12-11T23:57:32.158Z,17.30
